sensor_id;sensor_type;location;lat;lon;timestamp;P1;durP1;ratioP1;P2;durP2;ratioP2
35743;SDS011;21867;52.012;4.324;2024-02-21T00:00:51;17.17;;;5.37;;
35743;SDS011;21867;52.012;4.324;2024-02-21T00:03:34;15.20;;;4.50;;
35743;SDS011;21867;52.012;4.324;2024-02-21T00:06:01;16.27;;;5.00;;
35743;SDS011;21867;52.012;4.324;2024-02-21T00:08:28;9.60;;;4.00;;
35743;SDS011;21867;52.012;4.324;2024-02-21T00:10:56;16.97;;;4.83;;
35743;SDS011;21867;52.012;4.324;2024-02-21T00:13:23;12.33;;;3.73;;
35743;SDS011;21867;52.012;4.324;2024-02-21T00:15:51;26.20;;;6.43;;
35743;SDS011;21867;52.012;4.324;2024-02-21T00:21:09;19.00;;;5.40;;
35743;SDS011;21867;52.012;4.324;2024-02-21T00:23:36;19.63;;;4.47;;
35743;SDS011;21867;52.012;4.324;2024-02-21T00:26:03;21.27;;;4.47;;
35743;SDS011;21867;52.012;4.324;2024-02-21T00:28:38;16.50;;;4.67;;
35743;SDS011;21867;52.012;4.324;2024-02-21T00:31:24;16.80;;;5.07;;
35743;SDS011;21867;52.012;4.324;2024-02-21T00:33:54;17.60;;;6.43;;
35743;SDS011;21867;52.012;4.324;2024-02-21T00:36:23;17.70;;;4.63;;
35743;SDS011;21867;52.012;4.324;2024-02-21T00:38:50;16.83;;;4.27;;
35743;SDS011;21867;52.012;4.324;2024-02-21T00:41:18;16.13;;;4.63;;
35743;SDS011;21867;52.012;4.324;2024-02-21T00:43:45;16.97;;;4.60;;
35743;SDS011;21867;52.012;4.324;2024-02-21T00:46:13;16.03;;;6.03;;
35743;SDS011;21867;52.012;4.324;2024-02-21T00:48:42;15.00;;;4.77;;
35743;SDS011;21867;52.012;4.324;2024-02-21T00:51:09;17.70;;;4.70;;
35743;SDS011;21867;52.012;4.324;2024-02-21T00:53:38;14.33;;;4.50;;
35743;SDS011;21867;52.012;4.324;2024-02-21T00:56:06;18.10;;;5.00;;
35743;SDS011;21867;52.012;4.324;2024-02-21T01:01:32;13.17;;;4.60;;
35743;SDS011;21867;52.012;4.324;2024-02-21T01:03:59;17.63;;;5.53;;
35743;SDS011;21867;52.012;4.324;2024-02-21T01:06:27;16.40;;;4.83;;
35743;SDS011;21867;52.012;4.324;2024-02-21T01:08:55;10.00;;;4.03;;
35743;SDS011;21867;52.012;4.324;2024-02-21T01:11:23;13.13;;;3.70;;
35743;SDS011;21867;52.012;4.324;2024-02-21T01:13:50;23.63;;;5.67;;
35743;SDS011;21867;52.012;4.324;2024-02-21T01:16:18;21.70;;;4.87;;
35743;SDS011;21867;52.012;4.324;2024-02-21T01:18:45;19.67;;;5.13;;
35743;SDS011;21867;52.012;4.324;2024-02-21T01:21:13;14.20;;;4.27;;
35743;SDS011;21867;52.012;4.324;2024-02-21T01:23:40;13.10;;;4.57;;
35743;SDS011;21867;52.012;4.324;2024-02-21T01:26:09;19.60;;;5.23;;
35743;SDS011;21867;52.012;4.324;2024-02-21T01:28:36;17.10;;;4.77;;
35743;SDS011;21867;52.012;4.324;2024-02-21T01:31:04;18.07;;;4.70;;
35743;SDS011;21867;52.012;4.324;2024-02-21T01:33:39;15.40;;;5.10;;
35743;SDS011;21867;52.012;4.324;2024-02-21T01:36:06;14.63;;;4.50;;
35743;SDS011;21867;52.012;4.324;2024-02-21T01:38:34;16.83;;;4.17;;
35743;SDS011;21867;52.012;4.324;2024-02-21T01:41:02;21.57;;;4.40;;
35743;SDS011;21867;52.012;4.324;2024-02-21T01:43:31;23.17;;;5.60;;
35743;SDS011;21867;52.012;4.324;2024-02-21T01:45:58;16.57;;;5.33;;
35743;SDS011;21867;52.012;4.324;2024-02-21T01:48:25;12.83;;;4.67;;
35743;SDS011;21867;52.012;4.324;2024-02-21T01:50:54;16.63;;;4.33;;
35743;SDS011;21867;52.012;4.324;2024-02-21T01:53:22;16.03;;;4.20;;
35743;SDS011;21867;52.012;4.324;2024-02-21T01:55:50;16.00;;;5.03;;
35743;SDS011;21867;52.012;4.324;2024-02-21T01:58:17;17.37;;;5.67;;
35743;SDS011;21867;52.012;4.324;2024-02-21T02:00:47;9.53;;;3.93;;
35743;SDS011;21867;52.012;4.324;2024-02-21T02:06:05;16.53;;;4.10;;
35743;SDS011;21867;52.012;4.324;2024-02-21T02:08:32;23.07;;;4.10;;
35743;SDS011;21867;52.012;4.324;2024-02-21T02:11:00;15.77;;;4.70;;
35743;SDS011;21867;52.012;4.324;2024-02-21T02:13:28;14.27;;;4.53;;
35743;SDS011;21867;52.012;4.324;2024-02-21T02:15:56;17.03;;;4.53;;
35743;SDS011;21867;52.012;4.324;2024-02-21T02:18:24;13.30;;;4.00;;
35743;SDS011;21867;52.012;4.324;2024-02-21T02:23:42;17.87;;;4.93;;
35743;SDS011;21867;52.012;4.324;2024-02-21T02:26:09;15.17;;;4.37;;
35743;SDS011;21867;52.012;4.324;2024-02-21T02:28:37;13.73;;;5.10;;
35743;SDS011;21867;52.012;4.324;2024-02-21T02:31:10;15.53;;;4.73;;
35743;SDS011;21867;52.012;4.324;2024-02-21T02:33:47;16.63;;;5.27;;
35743;SDS011;21867;52.012;4.324;2024-02-21T02:36:15;17.17;;;4.57;;
35743;SDS011;21867;52.012;4.324;2024-02-21T02:38:44;14.60;;;4.57;;
35743;SDS011;21867;52.012;4.324;2024-02-21T02:41:11;13.80;;;4.37;;
35743;SDS011;21867;52.012;4.324;2024-02-21T02:43:38;16.67;;;5.33;;
35743;SDS011;21867;52.012;4.324;2024-02-21T02:46:06;16.23;;;5.27;;
35743;SDS011;21867;52.012;4.324;2024-02-21T02:48:33;14.67;;;4.03;;
35743;SDS011;21867;52.012;4.324;2024-02-21T02:51:01;14.43;;;4.70;;
35743;SDS011;21867;52.012;4.324;2024-02-21T02:53:28;19.47;;;4.90;;
35743;SDS011;21867;52.012;4.324;2024-02-21T02:55:57;12.43;;;4.80;;
35743;SDS011;21867;52.012;4.324;2024-02-21T02:58:24;12.93;;;5.53;;
35743;SDS011;21867;52.012;4.324;2024-02-21T03:00:58;11.63;;;4.60;;
35743;SDS011;21867;52.012;4.324;2024-02-21T03:03:44;14.03;;;4.50;;
35743;SDS011;21867;52.012;4.324;2024-02-21T03:06:15;14.77;;;4.63;;
35743;SDS011;21867;52.012;4.324;2024-02-21T03:08:42;11.33;;;4.10;;
35743;SDS011;21867;52.012;4.324;2024-02-21T03:11:12;11.73;;;4.10;;
35743;SDS011;21867;52.012;4.324;2024-02-21T03:13:39;14.13;;;4.73;;
35743;SDS011;21867;52.012;4.324;2024-02-21T03:16:07;14.50;;;5.50;;
35743;SDS011;21867;52.012;4.324;2024-02-21T03:18:34;13.17;;;6.10;;
35743;SDS011;21867;52.012;4.324;2024-02-21T03:21:07;18.40;;;5.57;;
35743;SDS011;21867;52.012;4.324;2024-02-21T03:23:34;16.10;;;5.57;;
35743;SDS011;21867;52.012;4.324;2024-02-21T03:26:02;13.30;;;5.23;;
35743;SDS011;21867;52.012;4.324;2024-02-21T03:28:30;10.50;;;4.67;;
35743;SDS011;21867;52.012;4.324;2024-02-21T03:34:33;8.90;;;4.60;;
35743;SDS011;21867;52.012;4.324;2024-02-21T03:37:01;11.90;;;4.73;;
35743;SDS011;21867;52.012;4.324;2024-02-21T03:39:30;10.83;;;4.43;;
35743;SDS011;21867;52.012;4.324;2024-02-21T03:41:58;12.57;;;5.13;;
35743;SDS011;21867;52.012;4.324;2024-02-21T03:44:26;15.07;;;5.50;;
35743;SDS011;21867;52.012;4.324;2024-02-21T03:46:54;9.00;;;4.10;;
35743;SDS011;21867;52.012;4.324;2024-02-21T03:52:08;17.33;;;5.63;;
35743;SDS011;21867;52.012;4.324;2024-02-21T03:54:36;9.83;;;5.17;;
35743;SDS011;21867;52.012;4.324;2024-02-21T03:57:04;15.00;;;6.00;;
35743;SDS011;21867;52.012;4.324;2024-02-21T03:59:33;15.20;;;5.40;;
35743;SDS011;21867;52.012;4.324;2024-02-21T04:02:13;12.37;;;6.17;;
35743;SDS011;21867;52.012;4.324;2024-02-21T04:05:07;14.03;;;5.73;;
35743;SDS011;21867;52.012;4.324;2024-02-21T04:07:35;19.93;;;6.20;;
35743;SDS011;21867;52.012;4.324;2024-02-21T04:10:03;12.20;;;5.80;;
35743;SDS011;21867;52.012;4.324;2024-02-21T04:12:30;17.77;;;6.13;;
35743;SDS011;21867;52.012;4.324;2024-02-21T04:14:59;13.80;;;5.93;;
35743;SDS011;21867;52.012;4.324;2024-02-21T04:17:26;11.23;;;5.90;;
35743;SDS011;21867;52.012;4.324;2024-02-21T04:19:56;13.43;;;6.37;;
35743;SDS011;21867;52.012;4.324;2024-02-21T04:22:28;15.40;;;6.13;;
35743;SDS011;21867;52.012;4.324;2024-02-21T04:24:55;11.33;;;7.13;;
35743;SDS011;21867;52.012;4.324;2024-02-21T04:27:23;15.77;;;6.30;;
35743;SDS011;21867;52.012;4.324;2024-02-21T04:29:50;15.90;;;6.43;;
35743;SDS011;21867;52.012;4.324;2024-02-21T04:32:19;11.70;;;5.97;;
35743;SDS011;21867;52.012;4.324;2024-02-21T04:37:48;16.17;;;6.70;;
35743;SDS011;21867;52.012;4.324;2024-02-21T04:40:16;12.87;;;6.37;;
35743;SDS011;21867;52.012;4.324;2024-02-21T04:42:43;14.37;;;7.23;;
35743;SDS011;21867;52.012;4.324;2024-02-21T04:45:11;14.00;;;6.27;;
35743;SDS011;21867;52.012;4.324;2024-02-21T04:47:40;9.33;;;5.90;;
35743;SDS011;21867;52.012;4.324;2024-02-21T04:50:14;17.30;;;6.53;;
35743;SDS011;21867;52.012;4.324;2024-02-21T04:52:42;11.90;;;6.33;;
35743;SDS011;21867;52.012;4.324;2024-02-21T04:55:10;14.57;;;6.63;;
35743;SDS011;21867;52.012;4.324;2024-02-21T04:57:37;8.97;;;6.43;;
35743;SDS011;21867;52.012;4.324;2024-02-21T05:00:05;9.47;;;6.10;;
35743;SDS011;21867;52.012;4.324;2024-02-21T05:02:33;14.07;;;7.07;;
35743;SDS011;21867;52.012;4.324;2024-02-21T05:05:08;12.33;;;6.87;;
35743;SDS011;21867;52.012;4.324;2024-02-21T05:07:35;10.43;;;5.37;;
35743;SDS011;21867;52.012;4.324;2024-02-21T05:10:03;13.50;;;6.90;;
35743;SDS011;21867;52.012;4.324;2024-02-21T05:12:30;17.40;;;6.20;;
35743;SDS011;21867;52.012;4.324;2024-02-21T05:15:07;8.53;;;6.90;;
35743;SDS011;21867;52.012;4.324;2024-02-21T05:18:01;12.13;;;6.73;;
35743;SDS011;21867;52.012;4.324;2024-02-21T05:20:30;8.37;;;6.73;;
35743;SDS011;21867;52.012;4.324;2024-02-21T05:22:58;8.47;;;6.40;;
35743;SDS011;21867;52.012;4.324;2024-02-21T05:25:25;10.10;;;6.87;;
35743;SDS011;21867;52.012;4.324;2024-02-21T05:27:53;9.97;;;6.73;;
35743;SDS011;21867;52.012;4.324;2024-02-21T05:30:20;10.17;;;6.70;;
35743;SDS011;21867;52.012;4.324;2024-02-21T05:32:47;10.70;;;7.03;;
35743;SDS011;21867;52.012;4.324;2024-02-21T05:35:16;11.27;;;6.33;;
35743;SDS011;21867;52.012;4.324;2024-02-21T05:37:45;11.20;;;7.73;;
35743;SDS011;21867;52.012;4.324;2024-02-21T05:40:13;14.20;;;7.13;;
35743;SDS011;21867;52.012;4.324;2024-02-21T05:42:40;12.30;;;7.50;;
35743;SDS011;21867;52.012;4.324;2024-02-21T05:45:16;9.33;;;6.67;;
35743;SDS011;21867;52.012;4.324;2024-02-21T05:47:47;12.60;;;7.33;;
35743;SDS011;21867;52.012;4.324;2024-02-21T05:50:20;13.17;;;7.07;;
35743;SDS011;21867;52.012;4.324;2024-02-21T05:52:50;10.53;;;7.90;;
35743;SDS011;21867;52.012;4.324;2024-02-21T05:55:18;14.17;;;7.97;;
35743;SDS011;21867;52.012;4.324;2024-02-21T05:57:45;11.27;;;7.63;;
35743;SDS011;21867;52.012;4.324;2024-02-21T06:00:13;11.47;;;8.23;;
35743;SDS011;21867;52.012;4.324;2024-02-21T06:02:41;17.20;;;9.03;;
35743;SDS011;21867;52.012;4.324;2024-02-21T06:05:08;11.87;;;8.30;;
35743;SDS011;21867;52.012;4.324;2024-02-21T06:07:36;11.03;;;8.00;;
35743;SDS011;21867;52.012;4.324;2024-02-21T06:10:06;10.20;;;8.30;;
35743;SDS011;21867;52.012;4.324;2024-02-21T06:12:34;12.50;;;9.27;;
35743;SDS011;21867;52.012;4.324;2024-02-21T06:15:01;11.40;;;7.87;;
35743;SDS011;21867;52.012;4.324;2024-02-21T06:17:29;10.93;;;8.77;;
35743;SDS011;21867;52.012;4.324;2024-02-21T06:22:55;10.97;;;9.10;;
35743;SDS011;21867;52.012;4.324;2024-02-21T06:25:27;20.63;;;11.07;;
35743;SDS011;21867;52.012;4.324;2024-02-21T06:27:55;14.07;;;9.77;;
35743;SDS011;21867;52.012;4.324;2024-02-21T06:30:22;16.23;;;9.67;;
35743;SDS011;21867;52.012;4.324;2024-02-21T06:32:50;17.10;;;10.47;;
35743;SDS011;21867;52.012;4.324;2024-02-21T06:35:19;12.50;;;9.87;;
35743;SDS011;21867;52.012;4.324;2024-02-21T06:37:46;18.40;;;9.47;;
35743;SDS011;21867;52.012;4.324;2024-02-21T06:40:14;17.50;;;9.90;;
35743;SDS011;21867;52.012;4.324;2024-02-21T06:42:43;14.77;;;10.73;;
35743;SDS011;21867;52.012;4.324;2024-02-21T06:45:10;16.43;;;10.30;;
35743;SDS011;21867;52.012;4.324;2024-02-21T06:47:37;20.40;;;10.43;;
35743;SDS011;21867;52.012;4.324;2024-02-21T06:50:05;17.90;;;11.07;;
35743;SDS011;21867;52.012;4.324;2024-02-21T06:52:33;14.30;;;10.00;;
35743;SDS011;21867;52.012;4.324;2024-02-21T06:55:00;20.17;;;10.30;;
35743;SDS011;21867;52.012;4.324;2024-02-21T06:57:28;13.87;;;9.97;;
35743;SDS011;21867;52.012;4.324;2024-02-21T06:59:57;16.80;;;10.70;;
35743;SDS011;21867;52.012;4.324;2024-02-21T07:02:24;18.47;;;11.53;;
35743;SDS011;21867;52.012;4.324;2024-02-21T07:04:52;13.93;;;8.90;;
35743;SDS011;21867;52.012;4.324;2024-02-21T07:07:19;15.23;;;9.60;;
35743;SDS011;21867;52.012;4.324;2024-02-21T07:09:47;13.23;;;9.77;;
35743;SDS011;21867;52.012;4.324;2024-02-21T07:12:14;15.57;;;11.50;;
35743;SDS011;21867;52.012;4.324;2024-02-21T07:14:42;12.30;;;9.17;;
35743;SDS011;21867;52.012;4.324;2024-02-21T07:17:10;20.43;;;10.47;;
35743;SDS011;21867;52.012;4.324;2024-02-21T07:19:38;17.50;;;11.50;;
35743;SDS011;21867;52.012;4.324;2024-02-21T07:22:05;16.20;;;9.80;;
35743;SDS011;21867;52.012;4.324;2024-02-21T07:24:33;21.50;;;10.50;;
35743;SDS011;21867;52.012;4.324;2024-02-21T07:27:00;17.70;;;11.20;;
35743;SDS011;21867;52.012;4.324;2024-02-21T07:29:27;15.27;;;11.37;;
35743;SDS011;21867;52.012;4.324;2024-02-21T07:31:54;18.17;;;11.30;;
35743;SDS011;21867;52.012;4.324;2024-02-21T07:34:23;17.87;;;11.93;;
35743;SDS011;21867;52.012;4.324;2024-02-21T07:36:51;17.00;;;11.83;;
35743;SDS011;21867;52.012;4.324;2024-02-21T07:39:18;19.73;;;11.87;;
35743;SDS011;21867;52.012;4.324;2024-02-21T07:41:45;22.90;;;12.03;;
35743;SDS011;21867;52.012;4.324;2024-02-21T07:44:13;18.47;;;11.80;;
35743;SDS011;21867;52.012;4.324;2024-02-21T07:46:40;13.00;;;9.57;;
35743;SDS011;21867;52.012;4.324;2024-02-21T07:49:08;17.43;;;10.70;;
35743;SDS011;21867;52.012;4.324;2024-02-21T07:51:36;18.70;;;11.77;;
35743;SDS011;21867;52.012;4.324;2024-02-21T07:54:04;15.60;;;10.93;;
35743;SDS011;21867;52.012;4.324;2024-02-21T07:56:31;16.23;;;11.13;;
35743;SDS011;21867;52.012;4.324;2024-02-21T07:59:03;13.57;;;10.40;;
35743;SDS011;21867;52.012;4.324;2024-02-21T08:01:31;15.03;;;11.03;;
35743;SDS011;21867;52.012;4.324;2024-02-21T08:03:58;16.70;;;11.23;;
35743;SDS011;21867;52.012;4.324;2024-02-21T08:06:26;15.40;;;9.83;;
35743;SDS011;21867;52.012;4.324;2024-02-21T08:08:55;15.17;;;10.73;;
35743;SDS011;21867;52.012;4.324;2024-02-21T08:11:42;16.27;;;10.37;;
35743;SDS011;21867;52.012;4.324;2024-02-21T08:14:10;19.97;;;10.77;;
35743;SDS011;21867;52.012;4.324;2024-02-21T08:16:37;15.73;;;10.80;;
35743;SDS011;21867;52.012;4.324;2024-02-21T08:19:05;11.60;;;8.80;;
35743;SDS011;21867;52.012;4.324;2024-02-21T08:21:32;12.97;;;9.37;;
35743;SDS011;21867;52.012;4.324;2024-02-21T08:24:01;13.00;;;8.63;;
35743;SDS011;21867;52.012;4.324;2024-02-21T08:26:29;13.70;;;10.27;;
35743;SDS011;21867;52.012;4.324;2024-02-21T08:28:56;13.43;;;10.30;;
35743;SDS011;21867;52.012;4.324;2024-02-21T08:31:24;16.33;;;10.77;;
35743;SDS011;21867;52.012;4.324;2024-02-21T08:33:51;17.13;;;10.30;;
35743;SDS011;21867;52.012;4.324;2024-02-21T08:36:19;15.73;;;11.30;;
35743;SDS011;21867;52.012;4.324;2024-02-21T08:41:43;20.43;;;11.97;;
35743;SDS011;21867;52.012;4.324;2024-02-21T08:44:23;16.37;;;12.37;;
35743;SDS011;21867;52.012;4.324;2024-02-21T08:46:50;18.83;;;12.17;;
35743;SDS011;21867;52.012;4.324;2024-02-21T08:49:18;14.00;;;10.47;;
35743;SDS011;21867;52.012;4.324;2024-02-21T08:51:45;15.13;;;11.90;;
35743;SDS011;21867;52.012;4.324;2024-02-21T08:54:13;15.33;;;11.10;;
35743;SDS011;21867;52.012;4.324;2024-02-21T08:56:40;16.93;;;11.60;;
35743;SDS011;21867;52.012;4.324;2024-02-21T08:59:09;17.67;;;12.17;;
35743;SDS011;21867;52.012;4.324;2024-02-21T09:01:36;18.20;;;10.43;;
35743;SDS011;21867;52.012;4.324;2024-02-21T09:04:04;22.90;;;10.97;;
35743;SDS011;21867;52.012;4.324;2024-02-21T09:06:32;16.43;;;9.60;;
35743;SDS011;21867;52.012;4.324;2024-02-21T09:09:03;14.00;;;10.90;;
35743;SDS011;21867;52.012;4.324;2024-02-21T09:11:30;15.70;;;9.77;;
35743;SDS011;21867;52.012;4.324;2024-02-21T09:13:58;15.43;;;10.57;;
35743;SDS011;21867;52.012;4.324;2024-02-21T09:16:26;14.53;;;9.93;;
35743;SDS011;21867;52.012;4.324;2024-02-21T09:18:54;14.50;;;10.73;;
35743;SDS011;21867;52.012;4.324;2024-02-21T09:21:21;12.57;;;9.83;;
35743;SDS011;21867;52.012;4.324;2024-02-21T09:23:49;13.57;;;10.13;;
35743;SDS011;21867;52.012;4.324;2024-02-21T09:26:16;10.13;;;7.93;;
35743;SDS011;21867;52.012;4.324;2024-02-21T09:28:43;12.90;;;10.83;;
35743;SDS011;21867;52.012;4.324;2024-02-21T09:31:11;13.87;;;9.10;;
35743;SDS011;21867;52.012;4.324;2024-02-21T09:33:59;10.03;;;7.57;;
35743;SDS011;21867;52.012;4.324;2024-02-21T09:36:26;9.47;;;8.23;;
35743;SDS011;21867;52.012;4.324;2024-02-21T09:38:54;13.17;;;10.63;;
35743;SDS011;21867;52.012;4.324;2024-02-21T09:41:23;13.00;;;9.70;;
35743;SDS011;21867;52.012;4.324;2024-02-21T09:44:04;14.03;;;9.27;;
35743;SDS011;21867;52.012;4.324;2024-02-21T09:47:22;14.03;;;9.97;;
35743;SDS011;21867;52.012;4.324;2024-02-21T09:49:52;13.97;;;10.13;;
35743;SDS011;21867;52.012;4.324;2024-02-21T09:52:20;15.50;;;10.37;;
35743;SDS011;21867;52.012;4.324;2024-02-21T09:54:49;15.37;;;11.63;;
35743;SDS011;21867;52.012;4.324;2024-02-21T09:57:16;10.07;;;7.50;;
35743;SDS011;21867;52.012;4.324;2024-02-21T09:59:44;12.47;;;7.50;;
35743;SDS011;21867;52.012;4.324;2024-02-21T10:05:04;13.27;;;9.37;;
35743;SDS011;21867;52.012;4.324;2024-02-21T10:07:32;15.67;;;10.30;;
35743;SDS011;21867;52.012;4.324;2024-02-21T10:10:02;15.10;;;10.13;;
35743;SDS011;21867;52.012;4.324;2024-02-21T10:12:30;12.70;;;9.47;;
35743;SDS011;21867;52.012;4.324;2024-02-21T10:15:01;12.10;;;9.67;;
35743;SDS011;21867;52.012;4.324;2024-02-21T10:17:34;13.80;;;10.17;;
35743;SDS011;21867;52.012;4.324;2024-02-21T10:23:01;9.37;;;8.40;;
35743;SDS011;21867;52.012;4.324;2024-02-21T10:25:29;13.80;;;10.60;;
35743;SDS011;21867;52.012;4.324;2024-02-21T10:27:56;13.63;;;10.60;;
35743;SDS011;21867;52.012;4.324;2024-02-21T10:30:24;13.13;;;10.77;;
35743;SDS011;21867;52.012;4.324;2024-02-21T10:32:51;9.80;;;8.83;;
35743;SDS011;21867;52.012;4.324;2024-02-21T10:35:26;10.00;;;6.43;;
35743;SDS011;21867;52.012;4.324;2024-02-21T10:37:54;12.33;;;10.23;;
35743;SDS011;21867;52.012;4.324;2024-02-21T10:40:24;12.10;;;11.00;;
35743;SDS011;21867;52.012;4.324;2024-02-21T10:42:53;9.33;;;7.87;;
35743;SDS011;21867;52.012;4.324;2024-02-21T10:45:23;11.77;;;10.53;;
35743;SDS011;21867;52.012;4.324;2024-02-21T10:47:53;14.60;;;11.13;;
35743;SDS011;21867;52.012;4.324;2024-02-21T10:50:22;14.87;;;11.70;;
35743;SDS011;21867;52.012;4.324;2024-02-21T10:52:55;19.63;;;11.87;;
35743;SDS011;21867;52.012;4.324;2024-02-21T10:55:26;16.50;;;12.77;;
35743;SDS011;21867;52.012;4.324;2024-02-21T11:00:57;13.37;;;10.70;;
35743;SDS011;21867;52.012;4.324;2024-02-21T11:03:25;12.57;;;11.03;;
35743;SDS011;21867;52.012;4.324;2024-02-21T11:05:53;11.47;;;9.73;;
35743;SDS011;21867;52.012;4.324;2024-02-21T11:08:20;12.00;;;10.83;;
35743;SDS011;21867;52.012;4.324;2024-02-21T11:10:49;11.90;;;10.70;;
35743;SDS011;21867;52.012;4.324;2024-02-21T11:13:17;12.53;;;9.40;;
35743;SDS011;21867;52.012;4.324;2024-02-21T11:15:53;10.73;;;9.67;;
35743;SDS011;21867;52.012;4.324;2024-02-21T11:18:24;10.33;;;9.13;;
35743;SDS011;21867;52.012;4.324;2024-02-21T11:20:51;10.17;;;9.00;;
35743;SDS011;21867;52.012;4.324;2024-02-21T11:23:24;17.63;;;12.60;;
35743;SDS011;21867;52.012;4.324;2024-02-21T11:25:52;11.77;;;9.53;;
35743;SDS011;21867;52.012;4.324;2024-02-21T11:32:15;11.73;;;10.53;;
35743;SDS011;21867;52.012;4.324;2024-02-21T11:34:52;9.40;;;8.43;;
35743;SDS011;21867;52.012;4.324;2024-02-21T11:37:20;13.57;;;10.83;;
35743;SDS011;21867;52.012;4.324;2024-02-21T11:39:47;12.20;;;9.50;;
35743;SDS011;21867;52.012;4.324;2024-02-21T11:42:17;11.37;;;10.00;;
35743;SDS011;21867;52.012;4.324;2024-02-21T11:44:45;13.40;;;10.47;;
35743;SDS011;21867;52.012;4.324;2024-02-21T11:47:13;13.07;;;10.13;;
35743;SDS011;21867;52.012;4.324;2024-02-21T11:49:43;13.03;;;10.27;;
35743;SDS011;21867;52.012;4.324;2024-02-21T11:52:10;10.53;;;9.53;;
35743;SDS011;21867;52.012;4.324;2024-02-21T11:54:38;13.23;;;10.47;;
35743;SDS011;21867;52.012;4.324;2024-02-21T11:57:05;11.37;;;10.23;;
35743;SDS011;21867;52.012;4.324;2024-02-21T12:02:41;12.87;;;10.20;;
35743;SDS011;21867;52.012;4.324;2024-02-21T12:05:09;10.37;;;9.27;;
35743;SDS011;21867;52.012;4.324;2024-02-21T12:07:37;10.43;;;9.30;;
35743;SDS011;21867;52.012;4.324;2024-02-21T12:10:06;9.33;;;8.43;;
35743;SDS011;21867;52.012;4.324;2024-02-21T12:12:34;8.67;;;7.77;;
35743;SDS011;21867;52.012;4.324;2024-02-21T12:15:01;9.73;;;8.47;;
35743;SDS011;21867;52.012;4.324;2024-02-21T12:17:28;16.43;;;7.93;;
35743;SDS011;21867;52.012;4.324;2024-02-21T12:19:57;11.93;;;7.50;;
35743;SDS011;21867;52.012;4.324;2024-02-21T12:22:25;9.70;;;8.10;;
35743;SDS011;21867;52.012;4.324;2024-02-21T12:24:52;13.10;;;7.70;;
35743;SDS011;21867;52.012;4.324;2024-02-21T12:27:20;10.07;;;8.50;;
35743;SDS011;21867;52.012;4.324;2024-02-21T12:29:47;11.07;;;7.73;;
35743;SDS011;21867;52.012;4.324;2024-02-21T12:36:04;11.27;;;7.93;;
35743;SDS011;21867;52.012;4.324;2024-02-21T12:38:32;10.37;;;8.10;;
35743;SDS011;21867;52.012;4.324;2024-02-21T12:40:59;9.27;;;8.07;;
35743;SDS011;21867;52.012;4.324;2024-02-21T12:43:27;10.27;;;8.10;;
35743;SDS011;21867;52.012;4.324;2024-02-21T12:45:54;10.67;;;9.13;;
35743;SDS011;21867;52.012;4.324;2024-02-21T12:48:21;13.67;;;8.00;;
35743;SDS011;21867;52.012;4.324;2024-02-21T12:50:54;11.20;;;8.30;;
35743;SDS011;21867;52.012;4.324;2024-02-21T12:53:23;9.60;;;8.60;;
35743;SDS011;21867;52.012;4.324;2024-02-21T12:55:58;11.97;;;8.47;;
35743;SDS011;21867;52.012;4.324;2024-02-21T12:58:26;11.03;;;8.00;;
35743;SDS011;21867;52.012;4.324;2024-02-21T13:01:11;9.70;;;8.27;;
35743;SDS011;21867;52.012;4.324;2024-02-21T13:06:34;12.67;;;7.63;;
35743;SDS011;21867;52.012;4.324;2024-02-21T13:09:03;12.70;;;9.20;;
35743;SDS011;21867;52.012;4.324;2024-02-21T13:11:31;8.73;;;7.87;;
35743;SDS011;21867;52.012;4.324;2024-02-21T13:13:59;9.37;;;8.47;;
35743;SDS011;21867;52.012;4.324;2024-02-21T13:16:26;11.13;;;8.60;;
35743;SDS011;21867;52.012;4.324;2024-02-21T13:18:54;9.27;;;8.37;;
35743;SDS011;21867;52.012;4.324;2024-02-21T13:21:27;12.67;;;8.40;;
35743;SDS011;21867;52.012;4.324;2024-02-21T13:23:54;12.10;;;10.83;;
35743;SDS011;21867;52.012;4.324;2024-02-21T13:26:23;10.50;;;9.27;;
35743;SDS011;21867;52.012;4.324;2024-02-21T13:28:50;11.80;;;9.43;;
35743;SDS011;21867;52.012;4.324;2024-02-21T13:31:30;10.47;;;8.03;;
35743;SDS011;21867;52.012;4.324;2024-02-21T13:34:11;9.30;;;8.40;;
35743;SDS011;21867;52.012;4.324;2024-02-21T13:36:39;12.07;;;8.27;;
35743;SDS011;21867;52.012;4.324;2024-02-21T13:39:06;13.67;;;10.30;;
35743;SDS011;21867;52.012;4.324;2024-02-21T13:41:35;9.90;;;8.77;;
35743;SDS011;21867;52.012;4.324;2024-02-21T13:44:02;15.13;;;9.13;;
35743;SDS011;21867;52.012;4.324;2024-02-21T13:46:29;9.90;;;7.13;;
35743;SDS011;21867;52.012;4.324;2024-02-21T13:49:01;13.70;;;9.60;;
35743;SDS011;21867;52.012;4.324;2024-02-21T13:51:29;12.83;;;10.87;;
35743;SDS011;21867;52.012;4.324;2024-02-21T13:53:57;15.20;;;9.83;;
35743;SDS011;21867;52.012;4.324;2024-02-21T13:56:24;11.13;;;9.40;;
35743;SDS011;21867;52.012;4.324;2024-02-21T13:58:53;8.13;;;7.33;;
35743;SDS011;21867;52.012;4.324;2024-02-21T14:04:10;7.37;;;6.63;;
35743;SDS011;21867;52.012;4.324;2024-02-21T14:06:38;9.00;;;8.07;;
35743;SDS011;21867;52.012;4.324;2024-02-21T14:09:05;9.60;;;8.63;;
35743;SDS011;21867;52.012;4.324;2024-02-21T14:11:33;13.27;;;9.17;;
35743;SDS011;21867;52.012;4.324;2024-02-21T14:14:02;11.47;;;7.20;;
35743;SDS011;21867;52.012;4.324;2024-02-21T14:16:29;13.23;;;9.70;;
35743;SDS011;21867;52.012;4.324;2024-02-21T14:18:57;9.60;;;8.57;;
35743;SDS011;21867;52.012;4.324;2024-02-21T14:21:24;10.80;;;8.03;;
35743;SDS011;21867;52.012;4.324;2024-02-21T14:23:52;10.90;;;7.37;;
35743;SDS011;21867;52.012;4.324;2024-02-21T14:26:19;5.97;;;4.83;;
35743;SDS011;21867;52.012;4.324;2024-02-21T14:28:47;8.40;;;6.73;;
35743;SDS011;21867;52.012;4.324;2024-02-21T14:31:16;8.47;;;7.63;;
35743;SDS011;21867;52.012;4.324;2024-02-21T14:33:49;8.27;;;5.87;;
35743;SDS011;21867;52.012;4.324;2024-02-21T14:36:16;8.17;;;7.30;;
35743;SDS011;21867;52.012;4.324;2024-02-21T14:38:44;8.57;;;5.77;;
35743;SDS011;21867;52.012;4.324;2024-02-21T14:41:11;8.63;;;7.27;;
35743;SDS011;21867;52.012;4.324;2024-02-21T14:43:38;12.40;;;5.73;;
35743;SDS011;21867;52.012;4.324;2024-02-21T14:46:06;7.57;;;6.77;;
35743;SDS011;21867;52.012;4.324;2024-02-21T14:48:44;7.10;;;5.63;;
35743;SDS011;21867;52.012;4.324;2024-02-21T14:54:05;8.40;;;5.70;;
35743;SDS011;21867;52.012;4.324;2024-02-21T14:56:32;6.50;;;5.40;;
35743;SDS011;21867;52.012;4.324;2024-02-21T14:59:15;5.40;;;4.53;;
35743;SDS011;21867;52.012;4.324;2024-02-21T15:05:02;4.77;;;4.37;;
35743;SDS011;21867;52.012;4.324;2024-02-21T15:07:30;5.23;;;4.67;;
35743;SDS011;21867;52.012;4.324;2024-02-21T15:09:57;10.83;;;5.70;;
35743;SDS011;21867;52.012;4.324;2024-02-21T15:12:25;5.27;;;4.33;;
35743;SDS011;21867;52.012;4.324;2024-02-21T15:14:52;3.10;;;2.83;;
35743;SDS011;21867;52.012;4.324;2024-02-21T15:17:19;5.70;;;5.10;;
35743;SDS011;21867;52.012;4.324;2024-02-21T15:19:47;9.70;;;5.17;;
35743;SDS011;21867;52.012;4.324;2024-02-21T15:22:16;5.87;;;5.23;;
35743;SDS011;21867;52.012;4.324;2024-02-21T15:24:43;5.90;;;4.47;;
35743;SDS011;21867;52.012;4.324;2024-02-21T15:27:11;8.53;;;5.87;;
35743;SDS011;21867;52.012;4.324;2024-02-21T15:29:39;6.40;;;4.83;;
35743;SDS011;21867;52.012;4.324;2024-02-21T15:32:06;6.33;;;5.73;;
35743;SDS011;21867;52.012;4.324;2024-02-21T15:34:34;5.83;;;4.83;;
35743;SDS011;21867;52.012;4.324;2024-02-21T15:37:02;7.73;;;4.93;;
35743;SDS011;21867;52.012;4.324;2024-02-21T15:39:31;6.47;;;4.83;;
35743;SDS011;21867;52.012;4.324;2024-02-21T15:42:01;5.83;;;5.33;;